Bridgeport Valley, California Weather observations

Data are for 10 minute period ending at time listed.
 Day   Time   Solar   Ave.   Ave.  Ave.  Vector  Max.   Baro.   Total    
  of    of     Rad.   Air    Rel.  Wind   Wind   Wind  Press.  Precip.   
Year   Day            Temp.  Hum.  Speed  Dir.   Gust                    
2014   (PST)  Kw/m2    F      %     mph   deg.    mph    mb.     in.     
-------------------------------------------------------------------------
 297   12:30   0.71   72.2    10   18.0   176    28.5   801.4    0.00 
 297   12:40   0.70   72.4    10   18.6   172    36.5   801.3    0.00 
 297   12:50   0.69   73.3    10   15.2   168    24.5   801.2    0.00 
 297   13:00   0.67   72.7    10   17.2   177    25.6   801.1    0.00 
 297   13:10   0.66   72.5    10   17.1   175    30.2   801.1    0.00 
 297   13:20   0.64   72.4    10   16.8   172    28.9   800.9    0.00 
 297   13:30   0.62   72.6    10   15.7   168    24.6   800.8    0.00 
 297   13:40   0.61   72.8    10   16.5   171    26.3   800.8    0.00 
 297   13:50   0.58   72.4    10   14.2   161    24.2   800.8    0.00 
 297   14:00   0.56   73.0    10   12.6   187    21.3   800.8    0.00 
 297   14:10   0.54   73.0    10   13.5   176    24.9   800.8    0.00 
 297   14:20   0.52   72.1    10   15.9   166    25.6   800.7    0.00 
 297   14:30   0.49   72.1    10   15.6   160    30.0   800.7    0.00 
 297   14:40   0.46   71.9    10   14.1   166    20.5   800.7    0.00 
 297   14:50   0.43   71.7    10   16.0   173    25.6   800.7    0.00 
 297   15:00   0.40   71.2    10   16.7   167    25.4   800.6    0.00 
 297   15:10   0.37   70.8    10   17.1   169    25.6   800.6    0.00 
 297   15:20   0.34   70.6    10   16.5   164    27.2   800.6    0.00 
 297   15:30   0.31   70.2    10   18.3   176    27.3   800.6    0.00 
 297   15:40   0.28   70.0    10   16.5   175    23.2   800.6    0.00 
 297   15:50   0.24   69.4    10   17.0   176    28.5   800.6    0.00 
 297   16:00   0.21   68.8    11   15.4   182    23.8   800.6    0.00 
 297   16:10   0.18   68.0    11   18.2   178    25.6   800.6    0.00 
 297   16:20   0.15   67.2    12   17.8   185    25.9   800.7    0.00 
 297   16:30   0.12   66.5    12   17.2   193    28.4   800.8    0.00 
 297   16:40   0.02   65.6    12   18.2   198    30.1   800.7    0.00 
 297   16:50   0.01   64.1    12   17.7   196    25.8   800.8    0.00 
 297   17:00   0.01   63.6    13   16.9   200    26.2   800.8    0.00 
 297   17:10   0.01   63.5    13   18.7   200    26.4   800.8    0.00 
 297   17:20   0.00   63.4    13   18.3   208    27.2   801.0    0.00 
 297   17:30   0.00   62.8    13   17.4   209    24.8   801.0    0.00 
 297   17:40   0.00   62.6    13   17.1   215    30.5   801.0    0.00 
 297   17:50   0.00   61.8    13   15.4   205    24.5   801.1    0.00 
 297   18:00   0.00   61.0    14   15.3   206    24.7   801.2    0.00 
 297   18:10   0.00   61.5    13   14.3   202    22.3   801.4    0.00 
 297   18:20   0.00   59.2    14   12.4   194    18.4   801.5    0.00 
 297   18:30   0.00   60.3    13   14.3   200    21.1   801.5    0.00 
 297   18:40   0.00   60.2    13   14.2   195    20.5   801.6    0.00 
 297   18:50   0.00   60.0    13   15.5   198    23.2   801.6    0.00 
 297   19:00   0.00   59.5    13   14.6   197    19.4   801.7    0.00 
 297   19:10   0.00   59.0    13   14.0   193    22.7   801.7    0.00 
 297   19:20   0.00   57.6    14   11.2   177    17.0   801.8    0.00 
 297   19:30   0.00   49.7    21    9.5   164    13.4   801.9    0.00 
 297   19:40   0.00   48.9    21    7.9   157    11.6   801.9    0.00 
 297   19:50   0.00   45.7    24    7.9   158    11.5   801.9    0.00 
 297   20:00   0.00   44.8    24    7.8   164    12.4   801.9    0.00 
 297   20:10   0.00   42.4    26    7.5   166    13.7   801.9    0.00 
 297   20:20   0.00   43.2    26    7.3   159    10.2   801.9    0.00 
 297   20:30   0.00   44.3    24    7.4   158    10.4   801.9    0.00 
 297   20:40   0.00   44.4    24    7.6   169    13.5   802.1    0.00 
 297   20:50   0.00   43.5    24    6.8   162     9.6   802.1    0.00 
 297   21:00   0.00   41.2    26    6.9   169     9.0   802.2    0.00 
 297   21:10   0.00   43.5    25    6.4   172     9.2   802.2    0.00 
 297   21:20   0.00   42.2    26    7.5   146    10.7   802.2    0.00 
 297   21:30   0.00   42.5    26    6.4   142    10.2   802.1    0.00 
 297   21:40   0.00   40.8    28    6.6   160     9.3   802.2    0.00 
 297   21:50   0.00   41.4    27    6.5   164     9.1   802.2    0.00 
 297   22:00   0.00   42.3    26    6.6   146     8.9   802.1    0.00 
 297   22:10   0.00   41.5    28    6.5   160    10.0   802.2    0.00 
 297   22:20   0.00   42.8    26    5.3   158     9.0   802.2    0.00 
 297   22:30   0.00   42.0    28    4.4   179     6.1   802.2    0.00 
 297   22:40   0.00   42.1    28    5.5   166     8.5   802.2    0.00 
 297   22:50   0.00   42.0    28    5.3   190     9.7   802.3    0.00 
 297   23:00   0.00   43.8    26    4.1   190     7.9   802.3    0.00 
 297   23:10   0.00   43.7    26    4.5   187    12.2   802.3    0.00 
 297   23:20   0.00   43.2    27    4.7   156    10.1   802.2    0.00 
 297   23:30   0.00   42.2    28    4.2   173     7.1   802.2    0.00 
 297   23:40   0.00   43.6    27    5.1   192    12.2   802.0    0.00 
 297   23:50   0.00   48.8    22    5.7   160    11.7   801.9    0.00 
 298    0:00   0.00   45.2    25    3.3   166     7.7   801.9    0.00 
 298    0:10   0.00   45.2    25    3.0   173     6.1   801.9    0.00 
 298    0:20   0.00   45.6    25    3.5   169     7.7   801.8    0.00 
 298    0:30   0.00   47.3    23    3.4   143     7.4   801.7    0.00 
 298    0:40   0.00   45.1    25    5.3   163     8.1   801.6    0.00 
 298    0:50   0.00   46.7    24    3.2   170     9.1   801.5    0.00 
 298    1:00   0.00   46.4    25    5.5   161     8.9   801.4    0.00 
 298    1:10   0.00   46.0    26    5.0   168     6.6   801.3    0.00 
 298    1:20   0.00   44.6    28    5.6   159     7.4   801.2    0.00 
 298    1:30   0.00   41.9    29    5.9   165     9.6   801.0    0.00 
 298    1:40   0.00   49.0    22    6.4   174     9.6   801.0    0.00 
 298    1:50   0.00   45.3    26    6.2   169     9.3   800.9    0.00 
 298    2:00   0.00   44.5    27    7.5   174    11.5   800.8    0.00 
 298    2:10   0.00   46.4    25    8.3   176    15.4   800.7    0.00 
 298    2:20   0.00   51.5    22   13.8   192    25.4   800.6    0.00 
 298    2:30   0.00   54.2    21   12.9   193    21.5   800.7    0.00 
 298    2:40   0.00   54.4    21   11.8   182    18.9   800.7    0.00 
 298    2:50   0.00   54.6    22   13.7   182    23.5   800.7    0.00 
 298    3:00   0.00   54.8    24   14.5   175    27.0   800.7    0.00 
 298    3:10   0.00   55.1    24   15.5   172    24.8   800.6    0.00 
 298    3:20   0.00   54.2    26   14.3   172    26.2   800.5    0.00 
 298    3:30   0.00   54.7    26   13.2   165    20.9   800.6    0.00 
 298    3:40   0.00   54.3    28   13.7   169    22.6   800.7    0.00 
 298    3:50   0.00   53.9    29   14.4   162    30.6   800.5    0.00 
 298    4:00   0.00   54.0    30   15.4   165    29.5   800.4    0.00 
 298    4:10   0.00   54.5    29   14.9   162    22.9   800.4    0.00 
 298    4:20   0.00   54.4    29   16.7   171    28.3   800.4    0.00 
 298    4:30   0.00   54.8    28   16.2   166    24.6   800.3    0.00 
 298    4:40   0.00   55.0    27   16.0   160    27.5   800.3    0.00 
 298    4:50   0.00   54.9    26   15.2   164    26.5   800.1    0.00 
 298    5:00   0.00   54.7    26   15.0   160    27.8   800.0    0.00 
 298    5:10   0.00   54.5    26   17.2   166    27.5   799.9    0.00 
 298    5:20   0.00   55.1    24   13.0   158    26.9   800.0    0.00 
 298    5:30   0.00   54.2    25   15.3   157    23.6   800.0    0.00 
 298    5:40   0.00   53.7    26   13.6   153    23.1   800.1    0.00 
 298    5:50   0.00   53.8    25   13.3   159    23.4   800.1    0.00 
 298    6:00   0.00   53.2    25   14.1   159    21.9   800.0    0.00 
 298    6:10   0.00   53.8    24   15.6   155    29.1   800.0    0.00 
 298    6:20   0.01   53.9    23   14.0   153    19.6   799.9    0.00 
 298    6:30   0.01   53.4    24   13.3   163    23.7   800.1    0.00 
 298    6:40   0.02   53.6    22   13.1   176    28.8   800.1    0.00 
 298    6:50   0.03   54.4    20   15.9   175    25.5   800.1    0.00 
 298    7:00   0.11   55.1    20   13.0   176    24.3   800.3    0.00 
 298    7:10   0.14   56.4    19   14.1   185    37.0   800.2    0.00 
 298    7:20   0.17   56.9    18   17.2   191    31.2   800.2    0.00 
 298    7:30   0.17   57.0    18   16.4   199    28.9   800.3    0.00 
 298    7:40   0.23   57.5    18   16.2   186    31.4   800.4    0.00 
 298    7:50   0.26   58.2    16   15.2   179    27.2   800.4    0.00 
 298    8:00   0.31   58.6    15   15.6   195    27.4   800.5    0.00 
 298    8:10   0.35   58.8    15   16.9   210    36.8   800.7    0.00 
 298    8:20   0.38   58.8    15   21.3   203    36.8   800.7    0.00 
 298    8:30   0.41   58.7    16   20.0   206    43.0   800.7    0.00 
 298    8:40   0.45   59.6    16   14.1   192    37.8   800.7    0.00 
 298    8:50   0.46   59.6    15   16.9   201    27.2   800.6    0.00 
 298    9:00   0.48   59.7    15   18.6   204    40.7   800.5    0.00 
 298    9:10   0.50   60.0    14   16.7   198    28.6   800.6    0.00 
 298    9:20   0.52   59.6    14   18.3   202    42.8   800.6    0.00 
 298    9:30   0.55   59.7    13   20.9   207    38.1   800.7    0.00 
 298    9:40   0.57   59.6    13   21.9   207    42.2   800.7    0.00 
 298    9:50   0.59   59.8    14   18.4   210    28.9   800.8    0.00 
 298   10:00   0.61   59.8    13   20.8   205    32.5   800.8    0.00 
 298   10:10   0.63   59.5    14   20.7   203    43.8   800.7    0.00 
 298   10:20   0.65   60.0    14   18.9   203    39.4   800.7    0.00 
 298   10:30   0.66   60.0    14   17.2   209    31.9   800.7    0.00 
 298   10:40   0.68   60.7    15   14.3   215    25.4   800.7    0.00 
 298   10:50   0.69   60.4    15   23.4   207    36.5   800.4    0.00 
 298   11:00   0.70   60.4    14   22.3   216    35.5   800.2    0.00 
 298   11:10   0.71   60.1    13   25.9   214    41.0   800.0    0.00 
 298   11:20   0.71   59.9    13   29.4   217    44.6   799.8    0.00 
 298   11:30   0.72   60.0    13   31.0   218    44.3   799.7    0.00 
 298   11:40   0.72   60.0    13   32.2   219    45.9   799.5    0.00 
 298   11:50   0.72   60.1    14   33.3   221    47.7   799.4    0.00 
 298   12:00   0.72   59.6    15   34.2   215    51.7   799.3    0.00 
 298   12:10   0.71   59.7    15   33.9   219    47.6   799.3    0.00 
 298   12:20   0.71   59.7    16   33.4   218    47.5   799.2    0.00 

Return to Bridgeport Valley graphs page.


Western Regional Climate Center,wrcc@dri.edu